Time;durP1;ratioP1;P1;durP2;ratioP2;P2;SDS_P1;SDS_P2;PMS_P1;PMS_P2;Temp;Humidity;BMP_temperature;BMP_pressure;BME280_temperature;BME280_humidity;BME280_pressure;Samples;Min_cycle;Max_cycle;Signal;HPM_P1;HPM_P2
2021/06/16 00:00:58;;;;;;;4.93;1.50;;;;;;;17.93;60.49;99462.50;5087628;28;20035;-23
2021/06/16 00:03:23;;;;;;;5.13;1.77;;;;;;;17.89;60.31;99460.66;5087714;28;20101;-23
2021/06/16 00:05:49;;;;;;;2.95;1.80;;;;;;;17.91;59.93;99458.47;5087647;28;20032;-24
2021/06/16 00:08:14;;;;;;;2.97;1.88;;;;;;;18.07;59.77;99466.16;5087603;28;20081;-23
2021/06/16 00:10:40;;;;;;;3.40;1.90;;;;;;;17.99;60.21;99447.09;5087663;28;20044;-23
2021/06/16 00:13:05;;;;;;;5.45;1.80;;;;;;;17.89;60.25;99429.09;5087251;28;20391;-23
2021/06/16 00:15:33;;;;;;;5.22;1.90;;;;;;;17.95;60.02;99413.66;5087480;28;20064;-23
2021/06/16 00:17:58;;;;;;;7.07;2.17;;;;;;;18.02;59.52;99409.56;5087213;28;20127;-23
2021/06/16 00:20:24;;;;;;;3.45;1.95;;;;;;;18.03;59.96;99440.03;5087221;28;20415;-23
2021/06/16 00:22:50;;;;;;;3.22;1.75;;;;;;;17.95;59.94;99425.25;5087587;28;20032;-23
2021/06/16 00:25:16;;;;;;;3.38;1.92;;;;;;;18.01;60.30;99424.13;5087485;28;20116;-23
2021/06/16 00:27:41;;;;;;;4.57;1.88;;;;;;;17.88;60.19;99403.22;5087336;28;20111;-23
2021/06/16 00:30:08;;;;;;;4.93;1.98;;;;;;;17.92;59.98;99409.66;5087320;28;20403;-23
2021/06/16 00:32:33;;;;;;;4.57;2.00;;;;;;;18.01;59.91;99434.91;5087148;28;20470;-23
2021/06/16 00:34:59;;;;;;;2.88;1.85;;;;;;;17.93;59.39;99405.84;5087391;28;20111;-23
2021/06/16 00:37:24;;;;;;;3.75;1.95;;;;;;;18.16;59.37;99430.47;5087041;28;20031;-23
2021/06/16 00:39:50;;;;;;;4.13;1.85;;;;;;;18.22;59.19;99418.53;5087772;28;20028;-24
2021/06/16 00:42:15;;;;;;;4.18;2.22;;;;;;;18.06;59.30;99402.50;5090485;28;20486;-23
2021/06/16 00:44:40;;;;;;;3.83;1.80;;;;;;;18.12;59.81;99407.84;5090795;28;20024;-24
2021/06/16 00:47:06;;;;;;;3.60;1.75;;;;;;;18.16;59.32;99416.97;5090865;28;20032;-24
2021/06/16 00:49:31;;;;;;;3.85;2.05;;;;;;;17.98;60.02;99416.63;5091118;28;20819;-23
2021/06/16 00:51:57;;;;;;;3.40;1.58;;;;;;;18.00;59.64;99421.69;5090454;28;20027;-23
2021/06/16 00:54:22;;;;;;;3.83;2.10;;;;;;;18.08;59.55;99423.78;5090476;28;20422;-23
2021/06/16 00:56:48;;;;;;;3.42;1.90;;;;;;;18.10;59.71;99423.50;5090279;28;20028;-23
2021/06/16 00:59:13;;;;;;;4.10;1.63;;;;;;;18.22;59.33;99421.22;5090567;28;20032;-23
2021/06/16 01:01:41;;;;;;;3.38;2.00;;;;;;;18.22;59.27;99422.03;5090514;28;20494;-23
2021/06/16 01:04:17;;;;;;;4.22;2.03;;;;;;;18.20;59.34;99436.91;5072109;28;20028;-23
2021/06/16 01:06:49;;;;;;;3.97;2.25;;;;;;;18.15;59.78;99428.88;5072494;28;20040;-24
2021/06/16 01:09:18;;;;;;;3.70;2.08;;;;;;;18.20;59.49;99428.81;5090173;28;20028;-23
2021/06/16 01:11:58;;;;;;;4.63;2.22;;;;;;;18.27;59.35;99437.38;5090416;28;20032;-23
2021/06/16 01:14:35;;;;;;;4.05;1.98;;;;;;;18.15;58.75;99418.06;5072388;28;20700;-22
2021/06/16 01:17:03;;;;;;;4.22;1.80;;;;;;;18.27;59.22;99432.00;5089556;28;20543;-22
2021/06/16 01:19:53;;;;;;;4.90;2.08;;;;;;;18.39;59.20;99442.41;5090125;28;20123;-23
2021/06/16 01:22:42;;;;;;;3.72;2.00;;;;;;;18.34;59.16;99443.25;5089970;28;20139;-23
2021/06/16 01:25:24;;;;;;;3.58;1.80;;;;;;;18.22;59.75;99440.13;5033550;28;20067;-23
2021/06/16 01:27:49;;;;;;;3.45;2.20;;;;;;;18.09;59.87;99440.81;5089955;28;20035;-23
2021/06/16 01:30:15;;;;;;;5.63;2.08;;;;;;;18.16;59.83;99446.66;5071570;28;20032;-23
2021/06/16 01:32:40;;;;;;;3.72;2.08;;;;;;;18.17;59.42;99450.97;5090008;28;20163;-23
2021/06/16 01:35:06;;;;;;;4.43;1.90;;;;;;;18.32;59.86;99460.81;5089944;28;20031;-23
2021/06/16 01:37:32;;;;;;;4.40;2.20;;;;;;;18.40;60.02;99463.69;5089698;28;20034;-23
2021/06/16 01:39:57;;;;;;;4.65;2.10;;;;;;;18.74;58.65;99460.09;5089938;28;20435;-24
2021/06/16 01:42:23;;;;;;;4.22;2.10;;;;;;;18.75;60.10;99459.00;5055158;28;20031;-22
2021/06/16 01:44:51;;;;;;;7.32;2.63;;;;;;;18.98;59.51;99465.53;5089684;28;20054;-23
2021/06/16 01:47:19;;;;;;;3.97;2.25;;;;;;;19.00;59.35;99446.31;5071931;28;20035;-23
2021/06/16 01:49:46;;;;;;;5.07;2.15;;;;;;;19.09;58.87;99425.66;5055573;28;20410;-24
2021/06/16 01:52:11;;;;;;;4.43;2.38;;;;;;;18.97;59.14;99450.41;5054871;28;21063;-23
2021/06/16 01:54:37;;;;;;;3.92;2.30;;;;;;;19.00;59.01;99432.78;5054880;28;20097;-23
2021/06/16 01:57:02;;;;;;;3.00;2.10;;;;;;;19.19;59.08;99439.03;5089463;28;20389;-23
2021/06/16 01:59:28;;;;;;;4.85;2.20;;;;;;;18.87;59.15;99424.31;5071192;28;20036;-23
2021/06/16 02:01:53;;;;;;;4.05;2.15;;;;;;;19.13;59.01;99440.19;5071295;28;20044;-23
2021/06/16 02:04:19;;;;;;;6.38;2.35;;;;;;;19.17;58.89;99452.03;5071323;28;20051;-23
2021/06/16 02:06:50;;;;;;;7.05;2.78;;;;;;;19.27;59.88;99443.00;5071110;28;20476;-23
2021/06/16 02:09:15;;;;;;;3.55;2.10;;;;;;;19.40;59.61;99457.69;5055000;28;20040;-23
2021/06/16 02:11:42;;;;;;;4.43;2.22;;;;;;;19.18;59.73;99450.94;5054201;28;20035;-23
2021/06/16 02:14:10;;;;;;;4.45;2.40;;;;;;;19.19;58.96;99452.56;5088897;28;20036;-23
2021/06/16 02:17:00;;;;;;;3.67;2.38;;;;;;;19.31;59.38;99470.22;5088692;28;20035;-23
2021/06/16 02:19:27;;;;;;;3.40;2.13;;;;;;;19.06;59.99;99442.44;5070821;28;20026;-23
2021/06/16 02:21:54;;;;;;;4.00;2.53;;;;;;;19.02;59.94;99446.81;5070981;28;20028;-23
2021/06/16 02:24:19;;;;;;;5.32;2.45;;;;;;;19.07;60.10;99454.88;5088548;28;20031;-23
2021/06/16 02:26:45;;;;;;;5.90;2.25;;;;;;;19.10;59.93;99464.28;5088943;28;20089;-23
2021/06/16 02:29:10;;;;;;;4.82;2.50;;;;;;;19.21;60.05;99458.47;5088710;28;20081;-23
2021/06/16 02:31:36;;;;;;;4.78;2.65;;;;;;;19.50;59.07;99457.53;5088797;28;20036;-23
2021/06/16 02:34:02;;;;;;;6.32;2.50;;;;;;;19.04;59.63;99433.81;5088209;28;20040;-23
2021/06/16 02:36:29;;;;;;;5.20;2.50;;;;;;;19.12;59.74;99449.38;5088671;28;20032;-23
2021/06/16 02:39:04;;;;;;;7.15;2.58;;;;;;;19.38;59.56;99436.34;5054267;28;20040;-23
2021/06/16 02:41:29;;;;;;;6.72;2.88;;;;;;;19.13;59.89;99453.72;5088850;28;20039;-23
2021/06/16 02:43:55;;;;;;;4.82;2.58;;;;;;;18.63;60.63;99451.31;5053937;28;20028;-23
2021/06/16 02:46:20;;;;;;;4.63;2.25;;;;;;;18.12;62.36;99459.09;5053319;28;20043;-23
2021/06/16 02:48:48;;;;;;;5.82;2.33;;;;;;;18.07;62.44;99449.97;5088604;28;20542;-23
2021/06/16 02:51:13;;;;;;;2.75;2.15;;;;;;;17.98;62.46;99465.19;5088415;28;20058;-23
2021/06/16 02:53:41;;;;;;;4.80;2.38;;;;;;;17.81;62.64;99441.25;5070149;28;20024;-23
2021/06/16 02:56:06;;;;;;;8.60;2.70;;;;;;;17.83;62.73;99454.50;5088121;28;20036;-23
2021/06/16 02:58:34;;;;;;;5.13;2.15;;;;;;;17.85;62.60;99457.72;5053522;28;20056;-23
2021/06/16 03:01:00;;;;;;;4.27;2.40;;;;;;;17.79;62.91;99454.22;5054124;28;20035;-23
2021/06/16 03:03:26;;;;;;;3.42;2.13;;;;;;;17.81;62.68;99457.44;5053131;28;20028;-23
2021/06/16 03:05:51;;;;;;;3.55;2.15;;;;;;;17.78;61.98;99441.03;5070091;28;20043;-23
2021/06/16 03:08:17;;;;;;;4.28;2.63;;;;;;;18.02;62.23;99458.13;5053174;28;20031;-23
2021/06/16 03:10:42;;;;;;;4.15;2.47;;;;;;;18.01;62.10;99456.50;5088617;28;20047;-23
2021/06/16 03:13:08;;;;;;;6.40;2.50;;;;;;;18.11;61.92;99454.81;5088046;28;20483;-23
2021/06/16 03:15:34;;;;;;;3.92;2.60;;;;;;;18.16;62.21;99460.94;5053008;28;20055;-23
2021/06/16 03:17:59;;;;;;;5.63;2.65;;;;;;;18.20;61.50;99469.28;5087991;28;20060;-23
2021/06/16 03:20:26;;;;;;;4.35;2.40;;;;;;;18.07;61.56;99455.38;5053083;28;20098;-24
2021/06/16 03:22:51;;;;;;;4.45;2.30;;;;;;;18.22;61.38;99470.59;5070022;28;20059;-23
2021/06/16 03:25:17;;;;;;;4.70;2.90;;;;;;;18.29;61.97;99486.50;5088536;28;20940;-22
2021/06/16 03:27:42;;;;;;;4.88;2.67;;;;;;;18.45;61.05;99493.34;5070026;28;20464;-23
2021/06/16 03:30:08;;;;;;;4.35;2.40;;;;;;;18.21;61.93;99471.72;5052940;28;20030;-23
2021/06/16 03:32:37;;;;;;;5.35;2.63;;;;;;;18.03;62.98;99473.22;5087727;28;20051;-23
2021/06/16 03:35:03;;;;;;;5.15;2.53;;;;;;;18.06;62.76;99486.16;5070215;28;20031;-23
2021/06/16 03:37:29;;;;;;;4.63;2.65;;;;;;;17.99;63.01;99482.97;5069941;28;20024;-23
2021/06/16 03:39:54;;;;;;;6.70;2.35;;;;;;;18.05;62.38;99473.72;5053186;28;20028;-23
2021/06/16 03:42:20;;;;;;;3.92;2.60;;;;;;;18.23;62.40;99479.53;5069624;28;20039;-23
2021/06/16 03:44:46;;;;;;;3.90;2.45;;;;;;;18.18;62.72;99482.25;5087708;28;20457;-23
2021/06/16 03:47:12;;;;;;;7.55;2.72;;;;;;;18.06;63.02;99479.94;5069930;28;20036;-23
2021/06/16 03:49:38;;;;;;;6.30;2.85;;;;;;;18.15;62.62;99474.75;5069582;28;20089;-23
2021/06/16 03:52:04;;;;;;;5.75;2.70;;;;;;;18.46;62.31;99494.94;5052882;28;20032;-23
2021/06/16 03:54:29;;;;;;;3.80;2.60;;;;;;;18.25;62.59;99480.84;5069910;28;20407;-23
2021/06/16 03:56:55;;;;;;;5.43;2.60;;;;;;;18.26;62.85;99489.75;5053053;28;20025;-23
2021/06/16 03:59:21;;;;;;;5.15;2.70;;;;;;;18.55;62.64;99503.25;5069606;28;20499;-23
2021/06/16 04:01:46;;;;;;;5.80;2.90;;;;;;;18.59;62.06;99515.09;5087769;28;20036;-23
2021/06/16 04:04:12;;;;;;;5.88;2.72;;;;;;;18.56;62.23;99504.06;5052730;28;20028;-23
2021/06/16 04:06:42;;;;;;;6.00;2.83;;;;;;;18.54;62.16;99496.22;5087611;28;20549;-23
2021/06/16 04:09:09;;;;;;;4.60;2.65;;;;;;;18.54;62.21;99498.13;5087620;28;20040;-23
2021/06/16 04:11:34;;;;;;;4.65;2.83;;;;;;;18.56;62.69;99510.25;5069433;28;20404;-23
2021/06/16 04:13:59;;;;;;;5.32;2.83;;;;;;;18.68;62.08;99509.88;5052635;28;20031;-23
2021/06/16 04:16:28;;;;;;;3.85;2.70;;;;;;;18.57;62.59;99484.03;5072095;28;20036;-23
2021/06/16 04:18:54;;;;;;;5.90;2.92;;;;;;;18.59;62.44;99503.47;5091114;28;20114;-23
2021/06/16 04:21:20;;;;;;;5.05;3.15;;;;;;;18.56;62.76;99504.06;5091446;28;20031;-23
2021/06/16 04:23:47;;;;;;;5.88;2.85;;;;;;;18.42;62.68;99498.50;5091387;28;20127;-23
2021/06/16 04:26:14;;;;;;;4.80;3.00;;;;;;;18.42;62.87;99493.91;5091113;28;20024;-23
2021/06/16 04:28:39;;;;;;;4.65;2.90;;;;;;;18.36;63.29;99511.25;5091230;28;20073;-23
2021/06/16 04:31:04;;;;;;;4.78;2.88;;;;;;;18.50;62.53;99510.59;5091625;28;20032;-23
2021/06/16 04:33:31;;;;;;;4.07;2.67;;;;;;;18.61;62.46;99523.72;5091093;28;20467;-23
2021/06/16 04:35:56;;;;;;;5.25;3.00;;;;;;;18.70;62.19;99517.69;5056500;28;20059;-23
2021/06/16 04:38:22;;;;;;;5.07;3.05;;;;;;;18.60;62.21;99521.28;5090797;28;20418;-22
2021/06/16 04:40:47;;;;;;;5.53;3.22;;;;;;;18.53;62.21;99524.34;5091017;28;20028;-23
2021/06/16 04:43:13;;;;;;;5.45;3.00;;;;;;;18.71;62.19;99530.09;5090974;28;20031;-22
2021/06/16 04:45:38;;;;;;;4.97;3.00;;;;;;;18.61;62.36;99522.88;5090864;28;20040;-23
2021/06/16 04:48:05;;;;;;;5.65;2.92;;;;;;;18.79;61.70;99530.28;5090465;28;20032;-23
2021/06/16 04:50:30;;;;;;;4.28;2.60;;;;;;;18.84;60.98;99521.34;5090844;28;20024;-22
2021/06/16 04:52:55;;;;;;;5.45;2.88;;;;;;;19.06;61.28;99539.72;5091320;28;20420;-23
2021/06/16 04:55:21;;;;;;;4.53;2.75;;;;;;;19.01;60.94;99543.31;5090984;28;20032;-23
2021/06/16 04:57:46;;;;;;;3.92;2.63;;;;;;;19.15;60.46;99548.81;5072366;28;20078;-23
2021/06/16 05:00:12;;;;;;;4.60;2.78;;;;;;;19.17;60.62;99562.84;5090606;28;20032;-23
2021/06/16 05:02:38;;;;;;;6.22;2.95;;;;;;;19.58;59.54;99570.47;5090520;28;20039;-23
2021/06/16 05:05:05;;;;;;;5.20;2.92;;;;;;;19.66;58.85;99553.59;5072444;28;20044;-23
2021/06/16 05:07:30;;;;;;;3.63;2.90;;;;;;;20.06;59.02;99577.66;5090595;28;20111;-26
2021/06/16 05:09:56;;;;;;;5.82;3.03;;;;;;;20.14;59.03;99574.28;5090799;28;20733;-25
2021/06/16 05:12:21;;;;;;;5.25;2.95;;;;;;;20.54;58.62;99580.16;5090031;28;20035;-25
2021/06/16 05:14:47;;;;;;;6.00;3.05;;;;;;;20.07;60.48;99574.66;5090291;28;20036;-23
2021/06/16 05:17:13;;;;;;;5.57;3.30;;;;;;;20.36;60.34;99586.41;5090281;28;20051;-23
2021/06/16 05:19:38;;;;;;;5.72;3.40;;;;;;;20.48;59.97;99592.97;5090275;28;20032;-23
2021/06/16 05:22:11;;;;;;;5.85;2.95;;;;;;;20.45;60.04;99581.91;5090048;28;20036;-23
2021/06/16 05:24:37;;;;;;;6.18;3.40;;;;;;;20.62;59.31;99590.34;5090244;28;20036;-23
2021/06/16 05:27:03;;;;;;;6.88;3.25;;;;;;;20.85;58.59;99594.00;5089547;28;20085;-23
2021/06/16 05:29:29;;;;;;;6.15;2.83;;;;;;;20.71;59.51;99603.22;5090021;28;20032;-23
2021/06/16 05:31:54;;;;;;;5.78;3.03;;;;;;;20.56;59.72;99593.41;5089942;28;20047;-23
2021/06/16 05:34:20;;;;;;;6.80;3.53;;;;;;;20.48;59.14;99590.28;5089789;28;20035;-23
2021/06/16 05:36:45;;;;;;;6.43;3.30;;;;;;;20.54;59.78;99582.06;5089777;28;20041;-23
2021/06/16 05:39:10;;;;;;;5.20;3.20;;;;;;;20.91;58.49;99599.34;5089921;28;20060;-23
2021/06/16 05:41:36;;;;;;;8.45;3.20;;;;;;;21.15;57.68;99597.25;5089664;28;20043;-23
2021/06/16 05:44:02;;;;;;;4.93;2.97;;;;;;;21.41;56.16;99619.25;5090018;28;20024;-23
2021/06/16 05:46:27;;;;;;;5.72;3.17;;;;;;;21.77;55.01;99623.16;5089538;28;20036;-23
2021/06/16 05:48:52;;;;;;;5.70;3.00;;;;;;;21.63;55.61;99623.97;5089656;28;20035;-23
2021/06/16 05:51:18;;;;;;;14.95;9.10;;;;;;;21.66;56.15;99628.00;5089426;28;20408;-23
2021/06/16 05:53:43;;;;;;;12.73;4.20;;;;;;;21.17;58.37;99622.16;5089466;28;20039;-22
2021/06/16 05:56:09;;;;;;;19.75;9.63;;;;;;;21.45;58.42;99633.03;5088961;28;20036;-23
2021/06/16 05:58:34;;;;;;;5.97;3.80;;;;;;;21.60;56.74;99635.44;5089254;28;20071;-23
2021/06/16 06:01:00;;;;;;;4.45;2.95;;;;;;;21.56;55.79;99631.72;5087865;28;20035;-23
2021/06/16 06:03:25;;;;;;;6.35;3.42;;;;;;;21.90;55.42;99637.81;5088970;28;20028;-23
2021/06/16 06:05:51;;;;;;;4.68;3.05;;;;;;;21.74;55.78;99640.03;5088467;28;20064;-23
2021/06/16 06:08:16;;;;;;;6.95;3.80;;;;;;;21.50;57.11;99643.78;5088596;28;20483;-23
2021/06/16 06:10:42;;;;;;;6.15;3.60;;;;;;;21.57;56.75;99640.66;5089040;28;20043;-22
2021/06/16 06:13:07;;;;;;;5.43;3.30;;;;;;;21.19;58.37;99652.50;5089190;28;20027;-23
2021/06/16 06:15:32;;;;;;;6.25;2.95;;;;;;;21.25;58.32;99639.66;5088807;28;20044;-23
2021/06/16 06:17:59;;;;;;;6.50;3.10;;;;;;;21.12;58.60;99641.22;5088737;28;20047;-23
2021/06/16 06:20:25;;;;;;;6.40;3.33;;;;;;;21.09;58.74;99635.63;5088897;28;20027;-22
2021/06/16 06:22:51;;;;;;;8.50;3.42;;;;;;;21.25;59.48;99640.44;5088955;28;20047;-22
2021/06/16 06:25:16;;;;;;;5.30;3.40;;;;;;;21.33;59.68;99643.53;5088833;28;20028;-22
2021/06/16 06:27:41;;;;;;;8.73;3.50;;;;;;;21.41;59.63;99642.84;5088982;28;20031;-23
2021/06/16 06:30:08;;;;;;;6.30;3.80;;;;;;;20.42;62.88;99645.63;5088584;28;20403;-22
2021/06/16 06:32:33;;;;;;;7.18;3.72;;;;;;;20.41;62.52;99638.59;5088745;28;20117;-24
2021/06/16 06:34:59;;;;;;;7.72;3.63;;;;;;;20.44;62.57;99624.47;5089243;28;20031;-23
2021/06/16 06:37:25;;;;;;;6.03;3.42;;;;;;;20.54;62.06;99620.78;5088156;28;20028;-22
2021/06/16 06:39:50;;;;;;;5.28;3.25;;;;;;;20.54;61.75;99636.25;5088360;28;20024;-23
2021/06/16 06:42:16;;;;;;;5.72;3.03;;;;;;;20.64;61.47;99653.16;5088353;28;20039;-22
2021/06/16 06:44:42;;;;;;;6.95;3.35;;;;;;;20.81;60.89;99625.50;5088499;28;20038;-23
2021/06/16 06:47:08;;;;;;;4.75;3.53;;;;;;;21.24;59.56;99644.25;5088734;28;20110;-22
2021/06/16 06:49:33;;;;;;;5.25;3.30;;;;;;;21.33;59.33;99640.84;5088608;28;20032;-23
2021/06/16 06:51:59;;;;;;;5.78;3.70;;;;;;;21.87;58.04;99666.38;5088505;28;20039;-23
2021/06/16 06:54:24;;;;;;;6.45;3.78;;;;;;;21.95;56.99;99649.38;5088144;28;20082;-23
2021/06/16 06:56:50;;;;;;;9.75;4.20;;;;;;;21.81;57.68;99656.72;5088325;28;20035;-22
2021/06/16 06:59:15;;;;;;;6.70;3.75;;;;;;;21.97;55.39;99655.28;5088240;28;20032;-23
2021/06/16 07:01:41;;;;;;;7.10;3.15;;;;;;;21.89;56.13;99656.03;5088452;28;20081;-23
2021/06/16 07:04:06;;;;;;;4.30;3.25;;;;;;;21.94;55.47;99645.03;5088085;28;20035;-23
2021/06/16 07:06:32;;;;;;;8.68;4.60;;;;;;;22.34;56.17;99633.59;5088297;28;20097;-23
2021/06/16 07:08:58;;;;;;;8.95;4.13;;;;;;;22.60;56.58;99655.53;5088132;28;20031;-23
2021/06/16 07:11:23;;;;;;;5.80;4.07;;;;;;;22.76;55.29;99645.06;5088531;28;20902;-23
2021/06/16 07:13:49;;;;;;;6.53;4.38;;;;;;;22.74;55.01;99639.97;5088363;28;20032;-23
2021/06/16 07:16:14;;;;;;;6.05;3.70;;;;;;;22.42;57.37;99649.97;5087943;28;20476;-22
2021/06/16 07:18:40;;;;;;;5.80;4.10;;;;;;;22.19;57.70;99629.28;5087884;28;20051;-23
2021/06/16 07:21:05;;;;;;;5.22;3.35;;;;;;;21.89;58.08;99637.00;5088139;28;20043;-22
2021/06/16 07:23:31;;;;;;;6.93;3.72;;;;;;;21.80;58.91;99644.25;5087881;28;20028;-22
2021/06/16 07:25:56;;;;;;;7.82;4.00;;;;;;;21.95;56.88;99645.84;5088389;28;20046;-23
2021/06/16 07:28:22;;;;;;;7.53;3.95;;;;;;;21.97;57.51;99660.72;5087791;28;20405;-23
2021/06/16 07:30:47;;;;;;;5.53;3.33;;;;;;;22.15;56.35;99663.59;5088060;28;20028;-23
2021/06/16 07:33:13;;;;;;;4.97;3.33;;;;;;;22.20;55.57;99663.50;5088074;28;20023;-22
2021/06/16 07:35:38;;;;;;;4.95;3.67;;;;;;;22.16;57.46;99651.63;5087918;28;20385;-22
2021/06/16 07:38:04;;;;;;;6.80;4.35;;;;;;;21.96;58.63;99650.97;5087631;28;20024;-22
2021/06/16 07:40:29;;;;;;;6.40;3.97;;;;;;;21.75;60.22;99641.66;5088105;28;20040;-23
2021/06/16 07:42:55;;;;;;;8.15;3.60;;;;;;;21.59;59.99;99650.09;5087807;28;20039;-23
2021/06/16 07:45:20;;;;;;;9.15;5.82;;;;;;;21.36;61.91;99651.09;5088102;28;20035;-23
2021/06/16 07:47:46;;;;;;;9.07;4.10;;;;;;;21.57;61.70;99638.75;5088021;28;20024;-22
2021/06/16 07:50:12;;;;;;;8.68;4.20;;;;;;;21.65;59.86;99643.47;5090351;28;20028;-22
2021/06/16 07:52:37;;;;;;;8.93;5.53;;;;;;;21.85;60.31;99646.88;5073597;28;20376;-22
2021/06/16 07:55:04;;;;;;;7.65;4.30;;;;;;;22.34;58.98;99672.44;5091700;28;20040;-23
2021/06/16 07:57:29;;;;;;;6.63;3.50;;;;;;;22.07;58.50;99667.84;5091586;28;20039;-22
2021/06/16 07:59:55;;;;;;;6.35;4.07;;;;;;;21.78;58.69;99670.91;5091920;28;20035;-22
2021/06/16 08:02:20;;;;;;;10.60;4.22;;;;;;;21.67;58.93;99657.53;5091665;28;20082;-23
2021/06/16 08:04:46;;;;;;;14.18;4.78;;;;;;;21.29;59.82;99675.91;5091667;28;20129;-23
2021/06/16 08:07:11;;;;;;;6.82;3.72;;;;;;;21.25;60.71;99683.84;5091501;28;20023;-22
2021/06/16 08:09:40;;;;;;;6.25;3.85;;;;;;;21.23;59.93;99668.97;5091671;28;20054;-23
2021/06/16 08:12:08;;;;;;;7.43;4.03;;;;;;;21.49;59.90;99687.50;5091185;28;20028;-23
2021/06/16 08:14:33;;;;;;;10.50;7.75;;;;;;;21.81;58.76;99684.66;5091555;28;20032;-23
2021/06/16 08:16:59;;;;;;;11.07;6.57;;;;;;;22.00;58.39;99683.75;5090797;28;20109;-23
2021/06/16 08:19:24;;;;;;;8.23;5.05;;;;;;;21.63;60.80;99699.16;5091375;28;20460;-23
2021/06/16 08:21:49;;;;;;;8.05;4.32;;;;;;;21.35;61.28;99690.97;5090778;28;20051;-22
2021/06/16 08:24:15;;;;;;;6.13;4.22;;;;;;;21.42;60.63;99701.44;5091125;28;20032;-23
2021/06/16 08:26:40;;;;;;;5.53;4.07;;;;;;;21.56;58.32;99698.75;5091388;28;20032;-23
2021/06/16 08:29:06;;;;;;;5.60;4.25;;;;;;;21.78;57.70;99695.31;5091271;28;20491;-23
2021/06/16 08:31:32;;;;;;;7.07;4.18;;;;;;;21.95;57.47;99694.72;5091457;28;20032;-22
2021/06/16 08:33:57;;;;;;;7.93;5.07;;;;;;;22.14;57.07;99691.88;5091013;28;20028;-22
2021/06/16 08:36:23;;;;;;;9.05;4.80;;;;;;;22.25;57.32;99701.41;5091093;28;20467;-23
2021/06/16 08:38:48;;;;;;;6.97;4.63;;;;;;;21.93;60.31;99711.31;5072727;28;20036;-22
2021/06/16 08:41:14;;;;;;;7.00;4.35;;;;;;;22.24;59.28;99718.84;5090837;28;20036;-23
2021/06/16 08:43:41;;;;;;;9.60;5.00;;;;;;;22.18;59.52;99728.97;5072883;28;20411;-22
2021/06/16 08:46:08;;;;;;;15.82;6.88;;;;;;;21.98;61.26;99716.63;5090681;28;20032;-23
2021/06/16 08:48:36;;;;;;;7.47;4.80;;;;;;;22.19;58.10;99725.16;5090906;28;20520;-23
2021/06/16 08:51:01;;;;;;;7.20;5.10;;;;;;;22.33;60.33;99733.31;5090721;28;20093;-23
2021/06/16 08:53:27;;;;;;;8.38;5.28;;;;;;;22.57;59.44;99740.38;5090782;28;20032;-23
2021/06/16 08:55:52;;;;;;;9.27;4.97;;;;;;;22.62;58.58;99751.16;5090623;28;20105;-23
2021/06/16 08:58:17;;;;;;;7.30;5.40;;;;;;;22.49;59.21;99754.69;5090466;28;20024;-23
2021/06/16 09:00:43;;;;;;;6.25;3.97;;;;;;;22.43;56.75;99752.09;5089888;28;20483;-23
2021/06/16 09:03:08;;;;;;;6.50;4.47;;;;;;;22.53;57.13;99752.97;5090545;28;20446;-23
2021/06/16 09:05:38;;;;;;;5.50;3.63;;;;;;;22.34;58.10;99745.78;5090404;28;20035;-23
2021/06/16 09:08:14;;;;;;;8.40;4.30;;;;;;;22.29;58.63;99743.16;5090250;28;20437;-23
2021/06/16 09:10:44;;;;;;;7.82;3.28;;;;;;;22.45;55.78;99747.19;5090515;28;20488;-23
2021/06/16 09:13:10;;;;;;;9.10;3.50;;;;;;;22.36;56.42;99759.84;5090465;28;20024;-23
2021/06/16 09:15:38;;;;;;;6.28;3.10;;;;;;;22.38;53.78;99748.69;5090198;28;20044;-23
2021/06/16 09:18:08;;;;;;;4.80;3.40;;;;;;;22.69;53.33;99748.78;5089683;28;20075;-23
2021/06/16 09:20:42;;;;;;;4.43;3.08;;;;;;;22.80;53.14;99739.31;5089996;28;20035;-23
2021/06/16 09:23:08;;;;;;;5.28;3.15;;;;;;;23.02;52.78;99748.59;5089922;28;20484;-23
2021/06/16 09:25:34;;;;;;;4.28;3.13;;;;;;;23.09;52.17;99738.09;5090122;28;20042;-23
2021/06/16 09:28:01;;;;;;;6.50;3.30;;;;;;;23.24;54.73;99758.66;5090456;28;20028;-23
2021/06/16 09:30:26;;;;;;;9.02;3.45;;;;;;;23.23;55.71;99760.59;5089812;28;20032;-23
2021/06/16 09:32:58;;;;;;;6.05;3.50;;;;;;;23.24;54.65;99764.09;5089823;28;20077;-23
2021/06/16 09:35:31;;;;;;;7.57;4.50;;;;;;;22.99;55.31;99750.00;5089753;28;20106;-23
2021/06/16 09:37:59;;;;;;;6.75;4.60;;;;;;;23.02;57.42;99748.59;5089756;28;20043;-23
2021/06/16 09:40:34;;;;;;;6.35;4.22;;;;;;;22.97;57.32;99751.41;5089349;28;20032;-23
2021/06/16 09:43:13;;;;;;;10.55;4.57;;;;;;;22.90;56.85;99770.88;5089739;28;20036;-23
2021/06/16 09:45:40;;;;;;;5.78;3.70;;;;;;;22.93;56.30;99772.19;5089650;28;20032;-23
2021/06/16 09:48:21;;;;;;;6.28;3.72;;;;;;;22.78;58.58;99771.44;5089214;28;20028;-23
2021/06/16 09:50:48;;;;;;;7.03;4.65;;;;;;;22.71;59.78;99756.66;5089487;28;20035;-23
2021/06/16 09:53:13;;;;;;;8.52;4.90;;;;;;;22.53;59.36;99763.84;5088673;28;20040;-23
2021/06/16 09:55:39;;;;;;;5.28;3.97;;;;;;;22.65;56.14;99755.97;5087563;28;20028;-23
2021/06/16 09:58:05;;;;;;;7.10;3.63;;;;;;;22.71;57.71;99765.59;5088323;28;20036;-24
2021/06/16 10:00:34;;;;;;;6.05;4.03;;;;;;;22.68;56.92;99744.50;5089130;28;20039;-23
2021/06/16 10:03:18;;;;;;;24.63;22.08;;;;;;;22.74;59.01;99758.75;5088268;28;20048;-23
2021/06/16 10:06:15;;;;;;;5.68;3.92;;;;;;;23.12;58.36;99756.50;5089271;28;20615;-23
2021/06/16 10:08:43;;;;;;;6.75;3.78;;;;;;;22.95;57.04;99745.50;5089147;28;20454;-23
2021/06/16 10:11:10;;;;;;;6.20;3.53;;;;;;;23.04;56.21;99758.03;5089418;28;20051;-23
2021/06/16 10:13:35;;;;;;;5.55;3.45;;;;;;;23.15;55.68;99763.22;5089267;28;20566;-23
2021/06/16 10:16:01;;;;;;;6.05;3.90;;;;;;;23.18;55.71;99763.41;5088293;28;20143;-23
2021/06/16 10:18:27;;;;;;;6.80;3.75;;;;;;;23.23;56.90;99759.75;5087573;28;20434;-23
2021/06/16 10:20:53;;;;;;;6.20;3.80;;;;;;;22.92;57.21;99756.97;5089009;28;20028;-23
2021/06/16 10:23:19;;;;;;;6.07;3.55;;;;;;;23.11;56.43;99765.78;5088875;28;20101;-23
2021/06/16 10:25:45;;;;;;;5.75;3.78;;;;;;;23.42;55.54;99760.34;5089013;28;20024;-23
2021/06/16 10:28:10;;;;;;;5.22;3.47;;;;;;;23.78;51.60;99762.16;5054158;28;20028;-23
2021/06/16 10:30:41;;;;;;;7.63;3.72;;;;;;;23.77;52.44;99746.13;5054336;28;20024;-23
2021/06/16 10:33:35;;;;;;;6.65;3.85;;;;;;;24.19;49.43;99763.72;5055539;28;20032;-23
2021/06/16 10:36:13;;;;;;;6.57;3.70;;;;;;;24.18;50.28;99766.75;5071969;28;20024;-24
2021/06/16 10:38:39;;;;;;;;;;;;;;;23.82;51.10;99771.31;5089366;28;20119;-23
2021/06/16 10:41:04;;;;;;;5.40;3.60;;;;;;;23.72;51.95;99757.13;5088568;28;19991;-23
2021/06/16 10:43:39;;;;;;;5.72;3.47;;;;;;;23.83;52.70;99751.13;5088686;28;20028;-24
2021/06/16 10:46:07;;;;;;;5.80;3.92;;;;;;;23.80;51.15;99750.94;5088350;28;20058;-23
2021/06/16 10:48:56;;;;;;;5.60;3.45;;;;;;;24.28;49.08;99777.38;5088041;28;20058;-23
2021/06/16 10:51:38;;;;;;;7.38;3.97;;;;;;;24.99;48.34;99781.78;5088418;28;20111;-23
2021/06/16 10:54:11;;;;;;;5.95;4.10;;;;;;;24.45;51.70;99771.94;5088109;28;20107;-21
2021/06/16 10:57:09;;;;;;;6.72;4.20;;;;;;;24.69;50.37;99767.97;5088775;28;20043;-23
2021/06/16 10:59:48;;;;;;;7.45;4.00;;;;;;;24.45;50.95;99776.59;5088904;28;20058;-23
2021/06/16 11:02:25;;;;;;;8.55;5.70;;;;;;;24.45;49.62;99771.94;5087838;28;20032;-24
2021/06/16 11:04:51;;;;;;;7.22;4.15;;;;;;;24.29;51.68;99751.69;5088559;28;20031;-24
2021/06/16 11:07:31;;;;;;;10.68;4.20;;;;;;;24.29;52.11;99775.44;5088417;28;20853;-24
2021/06/16 11:09:58;;;;;;;6.95;4.05;;;;;;;24.47;50.18;99761.50;5088347;28;20024;-24
2021/06/16 11:12:30;;;;;;;7.17;3.97;;;;;;;24.74;49.37;99764.28;5088025;28;20461;-24
2021/06/16 11:14:57;;;;;;;5.05;3.58;;;;;;;24.77;49.47;99772.63;5087965;28;20089;-24
2021/06/16 11:17:35;;;;;;;12.48;6.15;;;;;;;24.91;48.76;99777.09;5087770;28;20059;-24
2021/06/16 11:20:05;;;;;;;7.47;4.45;;;;;;;24.54;52.79;99773.88;5069785;28;20028;-24
2021/06/16 11:22:33;;;;;;;5.97;3.75;;;;;;;24.18;53.30;99766.75;5087834;28;20024;-24
2021/06/16 11:25:20;;;;;;;7.75;5.32;;;;;;;24.50;51.66;99778.38;5087406;28;20047;-24
2021/06/16 11:31:01;;;;;;;11.18;4.53;;;;;;;24.88;51.08;99783.22;5087608;28;20036;-24
2021/06/16 11:33:30;;;;;;;8.05;4.43;;;;;;;24.90;50.71;99778.25;5087876;28;20092;-24
2021/06/16 11:36:00;;;;;;;8.05;4.07;;;;;;;25.24;50.58;99780.16;5087824;28;20107;-24
2021/06/16 11:38:33;;;;;;;5.75;3.78;;;;;;;25.23;48.63;99756.72;5087797;28;20032;-24